sensor_id;sensor_type;location;lat;lon;timestamp;P1;durP1;ratioP1;P2;durP2;ratioP2
58864;SDS011;45702;52.982;6.658;2023-02-15T00:01:41;144.32;;;55.15;;
58864;SDS011;45702;52.982;6.658;2023-02-15T00:04:07;138.50;;;53.40;;
58864;SDS011;45702;52.982;6.658;2023-02-15T00:06:34;135.55;;;51.83;;
58864;SDS011;45702;52.982;6.658;2023-02-15T00:09:00;134.30;;;51.42;;
58864;SDS011;45702;52.982;6.658;2023-02-15T00:11:26;151.02;;;50.40;;
58864;SDS011;45702;52.982;6.658;2023-02-15T00:14:15;212.25;;;55.40;;
58864;SDS011;45702;52.982;6.658;2023-02-15T00:16:42;146.38;;;51.05;;
58864;SDS011;45702;52.982;6.658;2023-02-15T00:19:08;161.63;;;52.20;;
58864;SDS011;45702;52.982;6.658;2023-02-15T00:21:35;152.02;;;48.65;;
58864;SDS011;45702;52.982;6.658;2023-02-15T00:24:02;185.50;;;53.88;;
58864;SDS011;45702;52.982;6.658;2023-02-15T00:26:29;366.48;;;58.85;;
58864;SDS011;45702;52.982;6.658;2023-02-15T00:28:55;207.43;;;53.63;;
58864;SDS011;45702;52.982;6.658;2023-02-15T00:31:23;209.35;;;54.85;;
58864;SDS011;45702;52.982;6.658;2023-02-15T00:33:50;245.18;;;57.03;;
58864;SDS011;45702;52.982;6.658;2023-02-15T00:36:16;350.95;;;58.67;;
58864;SDS011;45702;52.982;6.658;2023-02-15T00:38:42;212.60;;;54.33;;
58864;SDS011;45702;52.982;6.658;2023-02-15T00:41:08;461.23;;;61.47;;
58864;SDS011;45702;52.982;6.658;2023-02-15T00:43:35;273.70;;;56.28;;
58864;SDS011;45702;52.982;6.658;2023-02-15T00:46:01;256.63;;;53.95;;
58864;SDS011;45702;52.982;6.658;2023-02-15T00:48:28;229.80;;;53.50;;
58864;SDS011;45702;52.982;6.658;2023-02-15T00:50:55;300.73;;;56.65;;
58864;SDS011;45702;52.982;6.658;2023-02-15T00:53:22;374.70;;;57.95;;
58864;SDS011;45702;52.982;6.658;2023-02-15T00:55:48;287.33;;;57.03;;
58864;SDS011;45702;52.982;6.658;2023-02-15T00:58:14;210.35;;;57.63;;
58864;SDS011;45702;52.982;6.658;2023-02-15T01:00:41;251.60;;;56.88;;
58864;SDS011;45702;52.982;6.658;2023-02-15T01:03:08;175.57;;;56.30;;
58864;SDS011;45702;52.982;6.658;2023-02-15T01:05:34;147.45;;;54.03;;
58864;SDS011;45702;52.982;6.658;2023-02-15T01:08:00;142.60;;;53.30;;
58864;SDS011;45702;52.982;6.658;2023-02-15T01:10:27;135.82;;;53.72;;
58864;SDS011;45702;52.982;6.658;2023-02-15T01:12:53;132.90;;;52.05;;
58864;SDS011;45702;52.982;6.658;2023-02-15T01:15:19;151.35;;;53.13;;
58864;SDS011;45702;52.982;6.658;2023-02-15T01:17:46;148.20;;;53.90;;
58864;SDS011;45702;52.982;6.658;2023-02-15T01:20:17;169.93;;;57.08;;
58864;SDS011;45702;52.982;6.658;2023-02-15T01:22:44;178.00;;;57.88;;
58864;SDS011;45702;52.982;6.658;2023-02-15T01:25:10;184.48;;;57.72;;
58864;SDS011;45702;52.982;6.658;2023-02-15T01:27:36;185.60;;;61.25;;
58864;SDS011;45702;52.982;6.658;2023-02-15T01:30:02;182.00;;;58.10;;
58864;SDS011;45702;52.982;6.658;2023-02-15T01:32:29;182.15;;;59.45;;
58864;SDS011;45702;52.982;6.658;2023-02-15T01:34:56;171.30;;;58.63;;
58864;SDS011;45702;52.982;6.658;2023-02-15T01:37:22;218.43;;;63.33;;
58864;SDS011;45702;52.982;6.658;2023-02-15T01:39:48;218.48;;;60.97;;
58864;SDS011;45702;52.982;6.658;2023-02-15T01:42:14;179.30;;;60.17;;
58864;SDS011;45702;52.982;6.658;2023-02-15T01:44:48;198.10;;;60.85;;
58864;SDS011;45702;52.982;6.658;2023-02-15T01:47:16;191.73;;;60.35;;
58864;SDS011;45702;52.982;6.658;2023-02-15T01:49:43;166.98;;;57.83;;
58864;SDS011;45702;52.982;6.658;2023-02-15T01:52:10;176.77;;;59.50;;
58864;SDS011;45702;52.982;6.658;2023-02-15T01:54:39;179.93;;;59.97;;
58864;SDS011;45702;52.982;6.658;2023-02-15T01:57:10;166.85;;;57.97;;
58864;SDS011;45702;52.982;6.658;2023-02-15T01:59:38;148.63;;;56.78;;
58864;SDS011;45702;52.982;6.658;2023-02-15T02:02:05;175.68;;;58.17;;
58864;SDS011;45702;52.982;6.658;2023-02-15T02:05:06;173.93;;;57.58;;
58864;SDS011;45702;52.982;6.658;2023-02-15T02:07:31;154.52;;;56.63;;
58864;SDS011;45702;52.982;6.658;2023-02-15T02:09:58;167.45;;;59.50;;
58864;SDS011;45702;52.982;6.658;2023-02-15T02:12:24;164.52;;;57.45;;
58864;SDS011;45702;52.982;6.658;2023-02-15T02:14:50;162.57;;;56.33;;
58864;SDS011;45702;52.982;6.658;2023-02-15T02:17:18;163.63;;;56.95;;
58864;SDS011;45702;52.982;6.658;2023-02-15T02:27:50;174.05;;;56.38;;
58864;SDS011;45702;52.982;6.658;2023-02-15T02:35:41;132.43;;;52.83;;
58864;SDS011;45702;52.982;6.658;2023-02-15T02:44:04;143.98;;;53.38;;
58864;SDS011;45702;52.982;6.658;2023-02-15T02:46:33;131.32;;;50.80;;
58864;SDS011;45702;52.982;6.658;2023-02-15T02:51:27;140.85;;;52.38;;
58864;SDS011;45702;52.982;6.658;2023-02-15T02:53:53;129.77;;;51.55;;
58864;SDS011;45702;52.982;6.658;2023-02-15T03:01:48;150.68;;;52.70;;
58864;SDS011;45702;52.982;6.658;2023-02-15T03:04:17;143.45;;;54.53;;
58864;SDS011;45702;52.982;6.658;2023-02-15T03:06:49;160.68;;;55.92;;
58864;SDS011;45702;52.982;6.658;2023-02-15T03:09:18;153.18;;;55.45;;
58864;SDS011;45702;52.982;6.658;2023-02-15T03:11:46;152.52;;;55.85;;
58864;SDS011;45702;52.982;6.658;2023-02-15T03:14:13;162.60;;;56.92;;
58864;SDS011;45702;52.982;6.658;2023-02-15T03:16:40;149.90;;;54.97;;
58864;SDS011;45702;52.982;6.658;2023-02-15T03:19:09;148.13;;;53.67;;
58864;SDS011;45702;52.982;6.658;2023-02-15T03:21:38;149.20;;;54.30;;
58864;SDS011;45702;52.982;6.658;2023-02-15T03:24:16;156.80;;;56.67;;
58864;SDS011;45702;52.982;6.658;2023-02-15T03:26:45;156.40;;;56.47;;
58864;SDS011;45702;52.982;6.658;2023-02-15T03:31:40;154.57;;;55.42;;
58864;SDS011;45702;52.982;6.658;2023-02-15T03:34:07;164.00;;;57.33;;
58864;SDS011;45702;52.982;6.658;2023-02-15T03:42:08;200.32;;;60.03;;
58864;SDS011;45702;52.982;6.658;2023-02-15T03:44:39;170.98;;;58.85;;
58864;SDS011;45702;52.982;6.658;2023-02-15T03:47:22;191.57;;;60.72;;
58864;SDS011;45702;52.982;6.658;2023-02-15T03:49:52;180.20;;;60.05;;
58864;SDS011;45702;52.982;6.658;2023-02-15T03:52:19;197.65;;;60.45;;
58864;SDS011;45702;52.982;6.658;2023-02-15T03:54:46;161.77;;;58.10;;
58864;SDS011;45702;52.982;6.658;2023-02-15T04:00:11;177.68;;;58.15;;
58864;SDS011;45702;52.982;6.658;2023-02-15T04:05:28;134.45;;;51.42;;
58864;SDS011;45702;52.982;6.658;2023-02-15T04:07:54;154.43;;;54.72;;
58864;SDS011;45702;52.982;6.658;2023-02-15T04:10:20;164.68;;;53.90;;
58864;SDS011;45702;52.982;6.658;2023-02-15T04:13:04;140.13;;;50.70;;
58864;SDS011;45702;52.982;6.658;2023-02-15T04:15:30;136.10;;;50.08;;
58864;SDS011;45702;52.982;6.658;2023-02-15T04:18:15;139.48;;;50.35;;
58864;SDS011;45702;52.982;6.658;2023-02-15T04:20:44;133.43;;;50.92;;
58864;SDS011;45702;52.982;6.658;2023-02-15T04:23:29;135.98;;;53.22;;
58864;SDS011;45702;52.982;6.658;2023-02-15T04:26:14;132.07;;;52.40;;
58864;SDS011;45702;52.982;6.658;2023-02-15T04:28:40;138.90;;;54.22;;
58864;SDS011;45702;52.982;6.658;2023-02-15T04:31:06;139.98;;;53.40;;
58864;SDS011;45702;52.982;6.658;2023-02-15T04:33:32;134.38;;;53.78;;
58864;SDS011;45702;52.982;6.658;2023-02-15T04:35:59;144.55;;;54.03;;
58864;SDS011;45702;52.982;6.658;2023-02-15T04:38:25;141.13;;;55.10;;
58864;SDS011;45702;52.982;6.658;2023-02-15T04:40:51;152.65;;;56.88;;
58864;SDS011;45702;52.982;6.658;2023-02-15T04:43:18;141.13;;;55.70;;
58864;SDS011;45702;52.982;6.658;2023-02-15T04:45:50;154.57;;;56.05;;
58864;SDS011;45702;52.982;6.658;2023-02-15T04:48:17;161.48;;;56.25;;
58864;SDS011;45702;52.982;6.658;2023-02-15T04:50:43;150.55;;;55.28;;
58864;SDS011;45702;52.982;6.658;2023-02-15T04:53:10;185.90;;;64.25;;
58864;SDS011;45702;52.982;6.658;2023-02-15T04:55:36;176.95;;;61.97;;
58864;SDS011;45702;52.982;6.658;2023-02-15T04:58:02;193.75;;;63.38;;
58864;SDS011;45702;52.982;6.658;2023-02-15T05:00:28;171.18;;;61.17;;
58864;SDS011;45702;52.982;6.658;2023-02-15T05:02:54;174.35;;;60.53;;
58864;SDS011;45702;52.982;6.658;2023-02-15T05:05:20;233.52;;;69.28;;
58864;SDS011;45702;52.982;6.658;2023-02-15T05:07:46;326.58;;;76.03;;
58864;SDS011;45702;52.982;6.658;2023-02-15T05:10:12;225.40;;;68.85;;
58864;SDS011;45702;52.982;6.658;2023-02-15T05:12:38;217.75;;;71.47;;
58864;SDS011;45702;52.982;6.658;2023-02-15T05:15:04;211.75;;;69.80;;
58864;SDS011;45702;52.982;6.658;2023-02-15T05:17:30;229.20;;;76.25;;
58864;SDS011;45702;52.982;6.658;2023-02-15T05:19:56;263.20;;;80.30;;
58864;SDS011;45702;52.982;6.658;2023-02-15T05:22:22;287.40;;;82.95;;
58864;SDS011;45702;52.982;6.658;2023-02-15T05:24:48;620.45;;;96.07;;
58864;SDS011;45702;52.982;6.658;2023-02-15T05:27:33;638.45;;;98.95;;
58864;SDS011;45702;52.982;6.658;2023-02-15T05:30:17;302.08;;;81.13;;
58864;SDS011;45702;52.982;6.658;2023-02-15T05:32:43;331.65;;;83.00;;
58864;SDS011;45702;52.982;6.658;2023-02-15T05:35:18;667.97;;;96.15;;
58864;SDS011;45702;52.982;6.658;2023-02-15T05:37:44;582.83;;;91.60;;
58864;SDS011;45702;52.982;6.658;2023-02-15T05:40:11;427.55;;;86.53;;
58864;SDS011;45702;52.982;6.658;2023-02-15T05:42:37;367.33;;;85.25;;
58864;SDS011;45702;52.982;6.658;2023-02-15T05:45:03;428.13;;;89.82;;
58864;SDS011;45702;52.982;6.658;2023-02-15T05:47:30;410.58;;;91.78;;
58864;SDS011;45702;52.982;6.658;2023-02-15T05:49:56;352.83;;;88.57;;
58864;SDS011;45702;52.982;6.658;2023-02-15T05:52:22;296.38;;;84.25;;
58864;SDS011;45702;52.982;6.658;2023-02-15T05:54:48;331.95;;;87.93;;
58864;SDS011;45702;52.982;6.658;2023-02-15T05:57:14;279.45;;;83.07;;
58864;SDS011;45702;52.982;6.658;2023-02-15T05:59:40;521.97;;;95.72;;
58864;SDS011;45702;52.982;6.658;2023-02-15T06:02:06;260.65;;;82.85;;
58864;SDS011;45702;52.982;6.658;2023-02-15T06:04:32;302.48;;;86.18;;
58864;SDS011;45702;52.982;6.658;2023-02-15T06:06:58;275.50;;;82.47;;
58864;SDS011;45702;52.982;6.658;2023-02-15T06:09:24;234.70;;;80.22;;
58864;SDS011;45702;52.982;6.658;2023-02-15T06:11:50;317.60;;;85.65;;
58864;SDS011;45702;52.982;6.658;2023-02-15T06:14:16;262.30;;;81.45;;
58864;SDS011;45702;52.982;6.658;2023-02-15T06:16:43;239.60;;;78.97;;
58864;SDS011;45702;52.982;6.658;2023-02-15T06:19:09;249.35;;;79.97;;
58864;SDS011;45702;52.982;6.658;2023-02-15T06:21:35;245.27;;;78.28;;
58864;SDS011;45702;52.982;6.658;2023-02-15T06:24:01;212.90;;;76.75;;
58864;SDS011;45702;52.982;6.658;2023-02-15T06:26:27;218.63;;;76.22;;
58864;SDS011;45702;52.982;6.658;2023-02-15T06:28:53;215.48;;;77.68;;
58864;SDS011;45702;52.982;6.658;2023-02-15T06:31:19;205.65;;;75.78;;
58864;SDS011;45702;52.982;6.658;2023-02-15T06:33:45;205.85;;;75.68;;
58864;SDS011;45702;52.982;6.658;2023-02-15T06:36:11;201.80;;;73.57;;
58864;SDS011;45702;52.982;6.658;2023-02-15T06:38:37;210.40;;;74.32;;
58864;SDS011;45702;52.982;6.658;2023-02-15T06:41:03;203.02;;;73.95;;
58864;SDS011;45702;52.982;6.658;2023-02-15T06:43:29;198.88;;;74.63;;
58864;SDS011;45702;52.982;6.658;2023-02-15T06:45:55;181.18;;;71.25;;
58864;SDS011;45702;52.982;6.658;2023-02-15T06:48:21;186.43;;;69.28;;
58864;SDS011;45702;52.982;6.658;2023-02-15T06:50:48;191.75;;;71.43;;
58864;SDS011;45702;52.982;6.658;2023-02-15T06:53:14;201.65;;;73.88;;
58864;SDS011;45702;52.982;6.658;2023-02-15T06:55:40;192.18;;;71.00;;
58864;SDS011;45702;52.982;6.658;2023-02-15T06:58:13;181.98;;;68.35;;
58864;SDS011;45702;52.982;6.658;2023-02-15T07:00:39;157.85;;;65.93;;
58864;SDS011;45702;52.982;6.658;2023-02-15T07:03:05;201.70;;;69.43;;
58864;SDS011;45702;52.982;6.658;2023-02-15T07:05:32;207.90;;;72.00;;
58864;SDS011;45702;52.982;6.658;2023-02-15T07:07:59;173.68;;;67.35;;
58864;SDS011;45702;52.982;6.658;2023-02-15T07:10:25;186.05;;;68.20;;
58864;SDS011;45702;52.982;6.658;2023-02-15T07:12:52;188.93;;;70.43;;
58864;SDS011;45702;52.982;6.658;2023-02-15T07:15:18;184.77;;;69.93;;
58864;SDS011;45702;52.982;6.658;2023-02-15T07:17:46;188.15;;;67.10;;
58864;SDS011;45702;52.982;6.658;2023-02-15T07:20:14;182.60;;;68.50;;
58864;SDS011;45702;52.982;6.658;2023-02-15T07:22:41;194.05;;;72.38;;
58864;SDS011;45702;52.982;6.658;2023-02-15T07:25:08;235.23;;;77.20;;
58864;SDS011;45702;52.982;6.658;2023-02-15T07:27:34;225.98;;;74.90;;
58864;SDS011;45702;52.982;6.658;2023-02-15T07:30:01;224.65;;;74.38;;
58864;SDS011;45702;52.982;6.658;2023-02-15T07:32:31;234.05;;;74.82;;
58864;SDS011;45702;52.982;6.658;2023-02-15T07:34:57;236.02;;;77.63;;
58864;SDS011;45702;52.982;6.658;2023-02-15T07:37:24;239.20;;;77.40;;
58864;SDS011;45702;52.982;6.658;2023-02-15T07:39:50;256.08;;;79.72;;
58864;SDS011;45702;52.982;6.658;2023-02-15T07:42:16;240.98;;;75.45;;
58864;SDS011;45702;52.982;6.658;2023-02-15T07:44:44;249.07;;;79.00;;
58864;SDS011;45702;52.982;6.658;2023-02-15T07:47:10;214.90;;;75.13;;
58864;SDS011;45702;52.982;6.658;2023-02-15T07:49:37;233.52;;;76.53;;
58864;SDS011;45702;52.982;6.658;2023-02-15T07:52:03;245.40;;;75.30;;
58864;SDS011;45702;52.982;6.658;2023-02-15T07:54:29;222.38;;;74.88;;
58864;SDS011;45702;52.982;6.658;2023-02-15T07:56:55;224.10;;;75.03;;
58864;SDS011;45702;52.982;6.658;2023-02-15T07:59:21;232.80;;;75.00;;
58864;SDS011;45702;52.982;6.658;2023-02-15T08:01:47;226.60;;;73.32;;
58864;SDS011;45702;52.982;6.658;2023-02-15T08:04:13;245.68;;;78.20;;
58864;SDS011;45702;52.982;6.658;2023-02-15T08:06:39;214.02;;;72.20;;
58864;SDS011;45702;52.982;6.658;2023-02-15T08:09:06;231.90;;;74.95;;
58864;SDS011;45702;52.982;6.658;2023-02-15T08:11:34;229.98;;;75.18;;
58864;SDS011;45702;52.982;6.658;2023-02-15T08:19:07;215.35;;;68.85;;
58864;SDS011;45702;52.982;6.658;2023-02-15T08:21:34;208.02;;;70.25;;
58864;SDS011;45702;52.982;6.658;2023-02-15T08:24:01;212.27;;;69.72;;
58864;SDS011;45702;52.982;6.658;2023-02-15T08:26:27;183.25;;;64.30;;
58864;SDS011;45702;52.982;6.658;2023-02-15T08:28:54;184.90;;;67.88;;
58864;SDS011;45702;52.982;6.658;2023-02-15T08:31:20;186.35;;;62.90;;
58864;SDS011;45702;52.982;6.658;2023-02-15T08:33:47;171.27;;;62.75;;
58864;SDS011;45702;52.982;6.658;2023-02-15T08:36:17;178.30;;;63.78;;
58864;SDS011;45702;52.982;6.658;2023-02-15T08:38:43;174.60;;;62.50;;
58864;SDS011;45702;52.982;6.658;2023-02-15T08:43:42;172.77;;;63.35;;
58864;SDS011;45702;52.982;6.658;2023-02-15T08:46:09;170.25;;;61.65;;
58864;SDS011;45702;52.982;6.658;2023-02-15T08:48:35;178.82;;;62.70;;
58864;SDS011;45702;52.982;6.658;2023-02-15T08:51:07;153.32;;;60.42;;
58864;SDS011;45702;52.982;6.658;2023-02-15T08:53:35;157.68;;;59.15;;
58864;SDS011;45702;52.982;6.658;2023-02-15T08:56:01;150.25;;;55.92;;
58864;SDS011;45702;52.982;6.658;2023-02-15T08:58:28;151.45;;;57.83;;
58864;SDS011;45702;52.982;6.658;2023-02-15T09:00:54;151.02;;;59.20;;
58864;SDS011;45702;52.982;6.658;2023-02-15T09:03:20;147.15;;;56.92;;
58864;SDS011;45702;52.982;6.658;2023-02-15T09:05:46;144.75;;;56.92;;
58864;SDS011;45702;52.982;6.658;2023-02-15T09:08:12;144.00;;;58.72;;
58864;SDS011;45702;52.982;6.658;2023-02-15T09:10:38;138.75;;;56.70;;
58864;SDS011;45702;52.982;6.658;2023-02-15T09:13:04;131.90;;;53.13;;
58864;SDS011;45702;52.982;6.658;2023-02-15T09:15:31;145.50;;;56.38;;
58864;SDS011;45702;52.982;6.658;2023-02-15T09:17:57;133.80;;;55.60;;
58864;SDS011;45702;52.982;6.658;2023-02-15T09:20:26;124.25;;;52.72;;
58864;SDS011;45702;52.982;6.658;2023-02-15T09:22:53;136.20;;;54.95;;
58864;SDS011;45702;52.982;6.658;2023-02-15T09:25:21;131.77;;;53.60;;
58864;SDS011;45702;52.982;6.658;2023-02-15T09:27:47;122.22;;;51.97;;
58864;SDS011;45702;52.982;6.658;2023-02-15T09:30:13;123.78;;;50.42;;
58864;SDS011;45702;52.982;6.658;2023-02-15T09:32:39;121.70;;;52.15;;
58864;SDS011;45702;52.982;6.658;2023-02-15T09:35:05;117.50;;;50.70;;
58864;SDS011;45702;52.982;6.658;2023-02-15T09:37:31;124.90;;;52.20;;
58864;SDS011;45702;52.982;6.658;2023-02-15T09:39:58;124.65;;;52.28;;
58864;SDS011;45702;52.982;6.658;2023-02-15T09:42:31;122.00;;;50.22;;
58864;SDS011;45702;52.982;6.658;2023-02-15T09:53:09;125.15;;;51.58;;
58864;SDS011;45702;52.982;6.658;2023-02-15T10:06:10;113.22;;;50.33;;
58864;SDS011;45702;52.982;6.658;2023-02-15T10:19:23;100.95;;;46.95;;
58864;SDS011;45702;52.982;6.658;2023-02-15T10:25:21;106.78;;;46.20;;
58864;SDS011;45702;52.982;6.658;2023-02-15T10:27:26;102.82;;;46.50;;
58864;SDS011;45702;52.982;6.658;2023-02-15T10:30:22;94.40;;;44.80;;
58864;SDS011;45702;52.982;6.658;2023-02-15T10:35:20;96.35;;;45.80;;
58864;SDS011;45702;52.982;6.658;2023-02-15T10:38:09;97.40;;;43.22;;
58864;SDS011;45702;52.982;6.658;2023-02-15T10:41:02;96.10;;;43.53;;
58864;SDS011;45702;52.982;6.658;2023-02-15T10:43:54;100.70;;;45.10;;
58864;SDS011;45702;52.982;6.658;2023-02-15T10:49:38;91.35;;;43.03;;
58864;SDS011;45702;52.982;6.658;2023-02-15T10:52:18;92.93;;;42.30;;
58864;SDS011;45702;52.982;6.658;2023-02-15T11:07:41;91.93;;;40.78;;
58864;SDS011;45702;52.982;6.658;2023-02-15T11:12:53;86.28;;;40.92;;
58864;SDS011;45702;52.982;6.658;2023-02-15T11:17:49;87.63;;;42.13;;
58864;SDS011;45702;52.982;6.658;2023-02-15T11:20:23;91.32;;;42.92;;
58864;SDS011;45702;52.982;6.658;2023-02-15T11:22:50;90.43;;;41.03;;
58864;SDS011;45702;52.982;6.658;2023-02-15T11:25:19;89.93;;;40.97;;
58864;SDS011;45702;52.982;6.658;2023-02-15T11:27:46;93.40;;;43.58;;
58864;SDS011;45702;52.982;6.658;2023-02-15T11:30:14;88.40;;;41.13;;
58864;SDS011;45702;52.982;6.658;2023-02-15T11:32:44;91.22;;;39.13;;
58864;SDS011;45702;52.982;6.658;2023-02-15T11:35:18;87.28;;;40.70;;
58864;SDS011;45702;52.982;6.658;2023-02-15T11:40:22;87.63;;;42.08;;
58864;SDS011;45702;52.982;6.658;2023-02-15T11:42:50;83.45;;;39.53;;
58864;SDS011;45702;52.982;6.658;2023-02-15T11:47:46;88.63;;;40.80;;
58864;SDS011;45702;52.982;6.658;2023-02-15T11:50:15;87.40;;;42.40;;
58864;SDS011;45702;52.982;6.658;2023-02-15T11:52:43;91.97;;;43.25;;
58864;SDS011;45702;52.982;6.658;2023-02-15T11:55:12;91.45;;;43.55;;
58864;SDS011;45702;52.982;6.658;2023-02-15T11:57:41;95.25;;;44.47;;
58864;SDS011;45702;52.982;6.658;2023-02-15T12:00:14;94.07;;;43.22;;
58864;SDS011;45702;52.982;6.658;2023-02-15T12:02:44;93.55;;;44.10;;
58864;SDS011;45702;52.982;6.658;2023-02-15T12:07:38;97.03;;;44.00;;
58864;SDS011;45702;52.982;6.658;2023-02-15T12:10:20;94.95;;;44.38;;
58864;SDS011;45702;52.982;6.658;2023-02-15T12:12:47;93.75;;;43.45;;
58864;SDS011;45702;52.982;6.658;2023-02-15T12:15:14;94.38;;;44.80;;
58864;SDS011;45702;52.982;6.658;2023-02-15T12:17:41;99.40;;;45.40;;
58864;SDS011;45702;52.982;6.658;2023-02-15T12:22:41;100.85;;;45.75;;
58864;SDS011;45702;52.982;6.658;2023-02-15T12:25:20;96.97;;;46.05;;
58864;SDS011;45702;52.982;6.658;2023-02-15T12:27:46;91.40;;;44.83;;
58864;SDS011;45702;52.982;6.658;2023-02-15T12:30:19;97.82;;;44.83;;
58864;SDS011;45702;52.982;6.658;2023-02-15T12:32:50;94.45;;;43.95;;
58864;SDS011;45702;52.982;6.658;2023-02-15T12:37:57;89.43;;;43.40;;
58864;SDS011;45702;52.982;6.658;2023-02-15T12:42:53;93.07;;;44.07;;
58864;SDS011;45702;52.982;6.658;2023-02-15T12:45:29;94.35;;;45.08;;
58864;SDS011;45702;52.982;6.658;2023-02-15T12:48:14;90.50;;;43.85;;
58864;SDS011;45702;52.982;6.658;2023-02-15T12:50:41;89.35;;;43.28;;
58864;SDS011;45702;52.982;6.658;2023-02-15T12:55:34;90.10;;;42.63;;
58864;SDS011;45702;52.982;6.658;2023-02-15T12:58:07;89.55;;;42.58;;
58864;SDS011;45702;52.982;6.658;2023-02-15T13:00:33;89.80;;;41.67;;
58864;SDS011;45702;52.982;6.658;2023-02-15T13:03:00;88.07;;;41.03;;
58864;SDS011;45702;52.982;6.658;2023-02-15T13:07:57;84.57;;;38.05;;
58864;SDS011;45702;52.982;6.658;2023-02-15T13:10:29;89.65;;;40.42;;
58864;SDS011;45702;52.982;6.658;2023-02-15T13:12:56;84.55;;;40.20;;
58864;SDS011;45702;52.982;6.658;2023-02-15T13:15:41;87.22;;;39.97;;
58864;SDS011;45702;52.982;6.658;2023-02-15T13:18:15;83.68;;;40.45;;
58864;SDS011;45702;52.982;6.658;2023-02-15T13:20:42;84.80;;;40.55;;
58864;SDS011;45702;52.982;6.658;2023-02-15T13:23:29;87.23;;;39.57;;
58864;SDS011;45702;52.982;6.658;2023-02-15T13:25:56;88.78;;;40.15;;
58864;SDS011;45702;52.982;6.658;2023-02-15T13:28:25;87.90;;;39.92;;
58864;SDS011;45702;52.982;6.658;2023-02-15T13:30:52;85.70;;;39.38;;
58864;SDS011;45702;52.982;6.658;2023-02-15T13:33:27;87.45;;;38.97;;
58864;SDS011;45702;52.982;6.658;2023-02-15T13:36:05;86.75;;;39.83;;
58864;SDS011;45702;52.982;6.658;2023-02-15T13:41:27;92.57;;;41.83;;
58864;SDS011;45702;52.982;6.658;2023-02-15T13:44:04;92.53;;;41.45;;
58864;SDS011;45702;52.982;6.658;2023-02-15T13:49:17;80.68;;;40.03;;
58864;SDS011;45702;52.982;6.658;2023-02-15T14:04:37;84.13;;;38.45;;
58864;SDS011;45702;52.982;6.658;2023-02-15T14:07:53;78.32;;;38.53;;
58864;SDS011;45702;52.982;6.658;2023-02-15T14:10:23;86.18;;;39.60;;
58864;SDS011;45702;52.982;6.658;2023-02-15T14:12:57;81.95;;;39.05;;
58864;SDS011;45702;52.982;6.658;2023-02-15T14:15:38;83.43;;;38.97;;
58864;SDS011;45702;52.982;6.658;2023-02-15T14:18:22;85.22;;;38.80;;
58864;SDS011;45702;52.982;6.658;2023-02-15T14:21:04;79.22;;;39.08;;
58864;SDS011;45702;52.982;6.658;2023-02-15T14:23:36;90.90;;;38.60;;
58864;SDS011;45702;52.982;6.658;2023-02-15T14:26:19;87.47;;;39.75;;
58864;SDS011;45702;52.982;6.658;2023-02-15T14:31:39;87.22;;;40.22;;
58864;SDS011;45702;52.982;6.658;2023-02-15T14:34:08;86.53;;;40.38;;
58864;SDS011;45702;52.982;6.658;2023-02-15T14:36:41;88.50;;;40.28;;
58864;SDS011;45702;52.982;6.658;2023-02-15T14:42:09;90.30;;;41.13;;
58864;SDS011;45702;52.982;6.658;2023-02-15T14:45:01;89.68;;;40.88;;
58864;SDS011;45702;52.982;6.658;2023-02-15T14:47:33;87.88;;;40.65;;
58864;SDS011;45702;52.982;6.658;2023-02-15T14:55:44;98.22;;;42.88;;
58864;SDS011;45702;52.982;6.658;2023-02-15T14:58:10;91.95;;;42.58;;
58864;SDS011;45702;52.982;6.658;2023-02-15T15:00:37;93.35;;;42.50;;
58864;SDS011;45702;52.982;6.658;2023-02-15T15:03:10;88.10;;;40.92;;
58864;SDS011;45702;52.982;6.658;2023-02-15T15:05:45;91.45;;;41.75;;
58864;SDS011;45702;52.982;6.658;2023-02-15T15:10:55;94.10;;;41.38;;
58864;SDS011;45702;52.982;6.658;2023-02-15T15:15:57;92.13;;;42.25;;
58864;SDS011;45702;52.982;6.658;2023-02-15T15:18:46;96.10;;;43.58;;
58864;SDS011;45702;52.982;6.658;2023-02-15T15:24:00;89.85;;;42.78;;
58864;SDS011;45702;52.982;6.658;2023-02-15T15:26:28;93.88;;;42.63;;
58864;SDS011;45702;52.982;6.658;2023-02-15T15:28:55;96.87;;;42.70;;
58864;SDS011;45702;52.982;6.658;2023-02-15T15:34:17;94.22;;;42.88;;
58864;SDS011;45702;52.982;6.658;2023-02-15T15:42:12;94.43;;;42.95;;
58864;SDS011;45702;52.982;6.658;2023-02-15T15:47:26;95.47;;;41.25;;
58864;SDS011;45702;52.982;6.658;2023-02-15T15:49:57;92.30;;;41.67;;
58864;SDS011;45702;52.982;6.658;2023-02-15T15:52:24;95.20;;;42.58;;
58864;SDS011;45702;52.982;6.658;2023-02-15T15:54:52;94.53;;;42.45;;
58864;SDS011;45702;52.982;6.658;2023-02-15T15:59:46;95.85;;;42.28;;
58864;SDS011;45702;52.982;6.658;2023-02-15T16:02:13;96.00;;;43.17;;
58864;SDS011;45702;52.982;6.658;2023-02-15T16:04:41;95.50;;;41.85;;
58864;SDS011;45702;52.982;6.658;2023-02-15T16:12:25;100.30;;;42.85;;
58864;SDS011;45702;52.982;6.658;2023-02-15T16:14:51;92.03;;;42.28;;
58864;SDS011;45702;52.982;6.658;2023-02-15T16:17:26;93.00;;;41.70;;
58864;SDS011;45702;52.982;6.658;2023-02-15T16:19:58;100.38;;;43.08;;
58864;SDS011;45702;52.982;6.658;2023-02-15T16:22:26;95.40;;;42.50;;
58864;SDS011;45702;52.982;6.658;2023-02-15T16:27:39;93.47;;;42.47;;
58864;SDS011;45702;52.982;6.658;2023-02-15T16:32:54;96.63;;;42.70;;
58864;SDS011;45702;52.982;6.658;2023-02-15T16:35:21;92.85;;;41.22;;
58864;SDS011;45702;52.982;6.658;2023-02-15T16:37:47;90.45;;;41.25;;
58864;SDS011;45702;52.982;6.658;2023-02-15T16:43:06;100.03;;;43.92;;
58864;SDS011;45702;52.982;6.658;2023-02-15T16:45:35;98.95;;;42.80;;
58864;SDS011;45702;52.982;6.658;2023-02-15T16:48:06;95.25;;;42.00;;
58864;SDS011;45702;52.982;6.658;2023-02-15T16:50:34;90.97;;;42.35;;
58864;SDS011;45702;52.982;6.658;2023-02-15T16:53:02;97.68;;;42.10;;
58864;SDS011;45702;52.982;6.658;2023-02-15T16:55:33;91.82;;;40.40;;
58864;SDS011;45702;52.982;6.658;2023-02-15T16:58:01;94.32;;;41.88;;
58864;SDS011;45702;52.982;6.658;2023-02-15T17:00:30;99.35;;;41.17;;
58864;SDS011;45702;52.982;6.658;2023-02-15T17:05:33;95.38;;;41.60;;
58864;SDS011;45702;52.982;6.658;2023-02-15T17:10:33;92.55;;;41.20;;
58864;SDS011;45702;52.982;6.658;2023-02-15T17:15:37;96.70;;;42.50;;
58864;SDS011;45702;52.982;6.658;2023-02-15T17:18:25;96.75;;;42.70;;
58864;SDS011;45702;52.982;6.658;2023-02-15T17:20:50;93.22;;;40.97;;
58864;SDS011;45702;52.982;6.658;2023-02-15T17:25:49;92.07;;;39.67;;
58864;SDS011;45702;52.982;6.658;2023-02-15T17:31:09;104.55;;;41.63;;
58864;SDS011;45702;52.982;6.658;2023-02-15T17:33:39;100.85;;;43.13;;
58864;SDS011;45702;52.982;6.658;2023-02-15T17:36:16;97.70;;;40.47;;
58864;SDS011;45702;52.982;6.658;2023-02-15T17:41:32;95.65;;;40.70;;
58864;SDS011;45702;52.982;6.658;2023-02-15T17:44:00;94.53;;;41.30;;
58864;SDS011;45702;52.982;6.658;2023-02-15T17:46:26;103.20;;;43.97;;
58864;SDS011;45702;52.982;6.658;2023-02-15T17:48:57;101.90;;;43.83;;
58864;SDS011;45702;52.982;6.658;2023-02-15T17:51:24;98.05;;;43.35;;